Time;durP1;ratioP1;P1;durP2;ratioP2;P2;SDS_P1;SDS_P2;PMS_P1;PMS_P2;Temp;Humidity;BMP_temperature;BMP_pressure;BME280_temperature;BME280_humidity;BME280_pressure;Samples;Min_cycle;Max_cycle;Signal;HPM_P1;HPM_P2
2022/08/20 00:00:52;;;;;;;36.58;30.83;;;;;;;21.38;88.68;100270.44;4980840;28;20162;-73
2022/08/20 00:03:20;;;;;;;35.45;30.95;;;;;;;21.40;88.71;100263.13;4976373;28;20027;-74
2022/08/20 00:05:53;;;;;;;42.40;31.60;;;;;;;21.41;88.53;100262.19;4978700;28;20038;-74
2022/08/20 00:08:19;;;;;;;35.47;30.63;;;;;;;21.31;89.92;100263.63;4980984;28;20046;-73
2022/08/20 00:10:46;;;;;;;41.75;32.75;;;;;;;21.36;89.55;100260.69;4983695;28;20465;-73
2022/08/20 00:13:15;;;;;;;36.25;30.35;;;;;;;21.43;89.75;100257.63;4979374;28;20453;-74
2022/08/20 00:15:41;;;;;;;34.20;29.48;;;;;;;21.38;89.36;100253.47;4981618;28;20046;-74
2022/08/20 00:18:07;;;;;;;35.58;30.40;;;;;;;21.31;89.85;100244.84;4981314;28;20051;-74
2022/08/20 00:20:36;;;;;;;32.78;28.33;;;;;;;21.22;90.75;100242.63;4982769;28;20538;-74
2022/08/20 00:23:02;;;;;;;38.65;31.48;;;;;;;21.13;91.21;100241.34;4983365;28;20541;-73
2022/08/20 00:25:28;;;;;;;38.78;32.10;;;;;;;20.97;93.46;100238.63;4986561;28;20129;-73
2022/08/20 00:27:55;;;;;;;38.65;34.53;;;;;;;20.79;95.11;100239.59;4985132;28;20478;-74
2022/08/20 00:30:21;;;;;;;38.08;32.67;;;;;;;20.60;96.84;100236.19;4985173;28;20037;-74
2022/08/20 00:32:51;;;;;;;36.17;32.17;;;;;;;20.47;99.19;100239.44;4986205;28;20095;-74
2022/08/20 00:35:20;;;;;;;39.88;34.30;;;;;;;20.32;100.00;100227.69;4980090;28;20042;-74
2022/08/20 00:37:46;;;;;;;43.42;34.05;;;;;;;20.26;100.00;100232.53;4985687;28;20076;-73
2022/08/20 00:40:16;;;;;;;48.22;35.25;;;;;;;20.17;100.00;100233.84;4985582;28;20066;-74
2022/08/20 00:42:44;;;;;;;39.28;33.03;;;;;;;20.03;100.00;100226.50;4979742;28;20039;-75
2022/08/20 00:45:10;;;;;;;43.45;34.75;;;;;;;19.97;100.00;100229.50;4981185;28;20069;-75
2022/08/20 00:47:39;;;;;;;41.90;32.22;;;;;;;19.93;100.00;100223.41;4985666;28;20054;-76
2022/08/20 00:50:06;;;;;;;49.65;35.95;;;;;;;19.88;100.00;100224.59;4985445;28;20078;-76
2022/08/20 00:52:31;;;;;;;55.22;37.70;;;;;;;19.80;100.00;100216.06;4983939;28;20042;-76
2022/08/20 00:54:59;;;;;;;50.47;36.75;;;;;;;19.84;100.00;100221.19;4984785;28;20057;-76
2022/08/20 00:57:28;;;;;;;48.58;36.55;;;;;;;19.90;100.00;100223.56;4982061;28;20053;-76
2022/08/20 00:59:56;;;;;;;65.18;42.00;;;;;;;19.88;100.00;100229.94;4984697;28;20035;-76
2022/08/20 01:02:24;;;;;;;52.35;37.95;;;;;;;19.90;100.00;100231.59;4984007;28;20421;-76
2022/08/20 01:04:53;;;;;;;52.00;39.45;;;;;;;19.82;100.00;100227.56;4986527;28;20087;-76
2022/08/20 01:07:19;;;;;;;51.67;37.10;;;;;;;19.78;100.00;100232.22;4980540;28;20400;-77
2022/08/20 01:09:46;;;;;;;57.33;39.75;;;;;;;19.82;100.00;100235.59;4985220;28;20045;-76
2022/08/20 01:12:13;;;;;;;49.45;34.90;;;;;;;19.83;100.00;100234.66;4982180;28;20136;-76
2022/08/20 01:14:44;;;;;;;63.53;39.53;;;;;;;19.83;100.00;100237.34;4985421;28;20038;-76
2022/08/20 01:17:16;;;;;;;54.70;35.78;;;;;;;19.91;100.00;100241.38;4979591;28;20121;-76
2022/08/20 01:19:46;;;;;;;53.22;37.83;;;;;;;19.97;100.00;100240.22;4983380;28;20038;-76
2022/08/20 01:25:28;;;;;;;56.17;37.55;;;;;;;20.10;100.00;100233.28;4981709;28;20526;-76
2022/08/20 01:27:54;;;;;;;54.72;36.75;;;;;;;20.20;100.00;100241.75;4982387;28;20486;-76
2022/08/20 01:30:20;;;;;;;46.75;32.70;;;;;;;20.28;100.00;100241.34;4984589;28;20053;-76
2022/08/20 01:32:45;;;;;;;46.22;34.42;;;;;;;20.34;100.00;100246.41;4983267;28;20409;-76
2022/08/20 01:35:11;;;;;;;45.72;35.10;;;;;;;20.39;100.00;100239.00;4984543;28;20113;-76
2022/08/20 01:37:36;;;;;;;44.67;34.45;;;;;;;20.41;100.00;100239.78;4984527;28;20039;-76
2022/08/20 01:40:07;;;;;;;52.90;37.50;;;;;;;20.46;100.00;100243.09;4983285;28;20405;-76
2022/08/20 01:42:42;;;;;;;47.70;34.90;;;;;;;20.42;100.00;100246.88;4976198;28;20046;-76
2022/08/20 01:45:07;;;;;;;42.83;33.08;;;;;;;20.50;100.00;100249.16;4980706;28;20113;-76
2022/08/20 01:47:33;;;;;;;42.78;31.95;;;;;;;20.55;100.00;100239.94;4981890;28;20130;-76
2022/08/20 01:50:04;;;;;;;38.15;32.03;;;;;;;20.49;100.00;100253.66;4985540;28;20393;-76
2022/08/20 01:52:40;;;;;;;43.80;36.13;;;;;;;20.54;100.00;100251.63;4963926;28;20043;-76
2022/08/20 01:55:07;;;;;;;38.95;31.83;;;;;;;20.52;100.00;100241.91;4982973;28;20513;-76
2022/08/20 01:57:33;;;;;;;41.15;31.50;;;;;;;20.44;100.00;100239.63;4985512;28;20048;-76
2022/08/20 02:00:00;;;;;;;43.90;31.83;;;;;;;20.38;100.00;100244.41;4982717;28;20041;-76
2022/08/20 02:02:26;;;;;;;36.50;29.50;;;;;;;20.33;100.00;100252.69;4984085;28;20071;-76
2022/08/20 02:04:51;;;;;;;43.30;34.55;;;;;;;20.31;100.00;100257.28;4982705;28;20043;-76
2022/08/20 02:07:21;;;;;;;46.00;32.67;;;;;;;20.30;100.00;100260.88;4984374;28;20620;-77
2022/08/20 02:09:49;;;;;;;38.67;30.50;;;;;;;20.34;100.00;100257.13;4982410;28;20445;-76
2022/08/20 02:12:15;;;;;;;43.53;30.77;;;;;;;20.29;100.00;100256.47;4981400;28;20054;-76
2022/08/20 02:14:46;;;;;;;41.80;32.60;;;;;;;20.30;100.00;100258.19;4983480;28;20444;-76
2022/08/20 02:17:13;;;;;;;45.75;32.67;;;;;;;20.25;100.00;100268.28;4983613;28;20038;-76
2022/08/20 02:19:46;;;;;;;40.45;34.47;;;;;;;20.27;100.00;100269.09;4981920;28;20039;-76
2022/08/20 02:22:44;;;;;;;42.53;31.30;;;;;;;20.21;100.00;100270.25;4983616;28;20045;-76
2022/08/20 02:25:10;;;;;;;38.17;31.08;;;;;;;20.20;100.00;100262.28;4981200;28;20065;-76
2022/08/20 02:27:39;;;;;;;41.40;31.20;;;;;;;20.16;100.00;100268.75;4981610;28;20481;-76
2022/08/20 02:30:10;;;;;;;41.78;33.67;;;;;;;20.13;100.00;100262.59;4978591;28;20043;-76
2022/08/20 02:32:37;;;;;;;40.42;31.20;;;;;;;20.06;100.00;100260.31;4982988;28;20042;-76
2022/08/20 02:35:09;;;;;;;48.08;33.92;;;;;;;20.09;100.00;100252.97;4967737;28;20084;-75
2022/08/20 02:37:35;;;;;;;55.83;36.05;;;;;;;20.11;100.00;100245.72;4978000;28;20046;-76
2022/08/20 02:40:06;;;;;;;44.60;30.63;;;;;;;20.08;100.00;100248.56;4983821;28;20093;-75
2022/08/20 02:42:33;;;;;;;39.13;29.67;;;;;;;19.98;100.00;100252.66;4980697;28;20051;-75
2022/08/20 02:44:58;;;;;;;38.88;29.83;;;;;;;20.03;100.00;100255.97;4979851;28;20035;-76
2022/08/20 02:47:26;;;;;;;46.63;33.50;;;;;;;20.09;100.00;100257.47;4981259;28;20101;-76
2022/08/20 02:49:53;;;;;;;43.15;30.83;;;;;;;20.09;100.00;100255.66;4982854;28;20137;-76
2022/08/20 02:52:18;;;;;;;39.95;30.75;;;;;;;20.09;100.00;100260.16;4982353;28;20077;-76
2022/08/20 02:54:43;;;;;;;47.80;35.75;;;;;;;20.10;100.00;100252.06;4981171;28;20066;-76
2022/08/20 02:57:14;;;;;;;47.33;34.00;;;;;;;20.16;100.00;100252.69;4983662;28;20035;-76
2022/08/20 02:59:39;;;;;;;39.28;30.75;;;;;;;20.18;100.00;100242.75;4981286;28;20093;-76
2022/08/20 03:02:04;;;;;;;51.67;37.10;;;;;;;20.09;100.00;100244.94;4983714;28;20041;-76
2022/08/20 03:04:30;;;;;;;50.28;35.20;;;;;;;20.10;100.00;100248.50;4982169;28;20086;-76
2022/08/20 03:06:56;;;;;;;38.67;30.88;;;;;;;20.10;100.00;100249.38;4982491;28;20072;-76
2022/08/20 03:09:22;;;;;;;37.90;31.13;;;;;;;20.04;100.00;100241.66;4983193;28;20096;-75
2022/08/20 03:11:47;;;;;;;41.33;31.13;;;;;;;19.96;100.00;100238.47;4980598;28;20042;-75
2022/08/20 03:14:12;;;;;;;47.40;33.70;;;;;;;19.97;100.00;100234.84;4979628;28;20031;-75
2022/08/20 03:16:38;;;;;;;46.00;32.88;;;;;;;19.95;100.00;100236.72;4983802;28;20412;-75
2022/08/20 03:19:03;;;;;;;45.13;34.35;;;;;;;19.93;100.00;100234.13;4981632;28;20039;-75
2022/08/20 03:21:29;;;;;;;47.88;33.28;;;;;;;19.90;100.00;100230.75;4982445;28;20039;-75
2022/08/20 03:23:54;;;;;;;43.85;33.75;;;;;;;19.81;100.00;100228.53;4963356;28;20058;-75
2022/08/20 03:26:19;;;;;;;44.92;32.55;;;;;;;19.75;100.00;100223.47;4981378;28;20038;-75
2022/08/20 03:28:45;;;;;;;45.60;35.45;;;;;;;19.71;100.00;100225.44;4980177;28;20049;-75
2022/08/20 03:31:10;;;;;;;48.20;35.35;;;;;;;19.71;100.00;100217.41;4979055;28;20130;-75
2022/08/20 03:33:38;;;;;;;50.03;34.58;;;;;;;19.64;100.00;100214.09;4983264;28;20109;-75
2022/08/20 03:36:04;;;;;;;44.50;34.47;;;;;;;19.66;100.00;100220.28;4980819;28;20085;-75
2022/08/20 03:38:30;;;;;;;44.88;31.92;;;;;;;19.65;100.00;100229.25;4981479;28;20134;-75
2022/08/20 03:40:55;;;;;;;43.47;34.35;;;;;;;19.63;100.00;100211.53;4980413;28;20126;-75
2022/08/20 03:43:20;;;;;;;41.83;33.33;;;;;;;19.63;100.00;100223.09;4975799;28;20093;-75
2022/08/20 03:45:46;;;;;;;47.78;34.28;;;;;;;19.55;100.00;100222.59;4983148;28;20042;-76
2022/08/20 03:48:15;;;;;;;45.85;32.70;;;;;;;19.53;100.00;100232.50;4980973;28;20097;-75
2022/08/20 03:50:42;;;;;;;49.55;33.38;;;;;;;19.55;100.00;100232.44;4978459;28;20114;-75
2022/08/20 03:53:12;;;;;;;52.42;34.92;;;;;;;19.67;100.00;100243.44;4977839;28;20034;-75
2022/08/20 03:55:38;;;;;;;45.33;34.53;;;;;;;19.65;100.00;100245.31;4975233;28;20030;-75
2022/08/20 03:58:06;;;;;;;44.75;32.67;;;;;;;19.68;100.00;100238.97;4976430;28;20070;-75
2022/08/20 04:00:47;;;;;;;42.10;32.45;;;;;;;19.62;100.00;100250.81;4985543;28;20030;-75
2022/08/20 04:03:14;;;;;;;43.42;33.75;;;;;;;19.67;100.00;100247.91;4978943;28;20178;-75
2022/08/20 04:05:40;;;;;;;52.45;36.67;;;;;;;19.65;100.00;100239.09;4982594;28;20038;-75
2022/08/20 04:08:14;;;;;;;51.63;34.58;;;;;;;19.70;100.00;100235.28;4979847;28;20110;-75
2022/08/20 04:10:40;;;;;;;49.45;31.92;;;;;;;19.65;100.00;100242.63;4984898;28;20045;-75
2022/08/20 04:13:06;;;;;;;44.47;32.70;;;;;;;19.63;100.00;100252.53;4979902;28;20123;-75
2022/08/20 04:15:34;;;;;;;42.97;32.45;;;;;;;19.66;100.00;100252.41;4983367;28;20058;-75
2022/08/20 04:17:59;;;;;;;42.67;32.30;;;;;;;19.64;100.00;100264.09;4980224;28;20073;-75
2022/08/20 04:20:25;;;;;;;48.78;34.08;;;;;;;19.63;100.00;100262.38;4986584;28;20074;-74
2022/08/20 04:22:52;;;;;;;49.10;35.72;;;;;;;19.74;100.00;100264.56;4984779;28;20448;-75
2022/08/20 04:25:18;;;;;;;50.20;35.72;;;;;;;19.73;100.00;100260.16;4981373;28;20039;-75
2022/08/20 04:27:45;;;;;;;54.78;38.10;;;;;;;19.76;100.00;100257.34;4984807;28;20042;-75
2022/08/20 04:30:13;;;;;;;46.45;34.15;;;;;;;19.85;100.00;100263.09;4985437;28;20560;-75
2022/08/20 04:32:40;;;;;;;50.05;34.65;;;;;;;19.79;100.00;100257.19;4984368;28;20039;-75
2022/08/20 04:35:08;;;;;;;52.47;33.22;;;;;;;19.81;100.00;100258.84;4985884;28;20038;-75
2022/08/20 04:37:34;;;;;;;52.67;36.72;;;;;;;19.82;100.00;100257.03;4967813;28;20043;-75
2022/08/20 04:42:50;;;;;;;43.50;33.47;;;;;;;19.72;100.00;100261.09;4975408;28;20037;-75
2022/08/20 04:45:15;;;;;;;56.78;37.33;;;;;;;19.62;100.00;100264.19;4981059;28;20043;-75
2022/08/20 04:47:40;;;;;;;55.58;36.95;;;;;;;19.65;100.00;100255.16;4977879;28;20042;-74
2022/08/20 04:50:10;;;;;;;47.20;31.73;;;;;;;19.58;100.00;100262.59;4983756;28;20046;-74
2022/08/20 04:52:36;;;;;;;49.83;34.53;;;;;;;19.55;100.00;100265.44;4980220;28;20106;-75
2022/08/20 04:55:03;;;;;;;55.10;36.55;;;;;;;19.55;100.00;100270.78;4973871;28;20086;-74
2022/08/20 04:57:28;;;;;;;39.08;30.58;;;;;;;19.54;100.00;100262.81;4969580;28;20121;-75
2022/08/20 04:59:54;;;;;;;38.10;28.92;;;;;;;19.50;100.00;100262.09;4978630;28;20103;-75
2022/08/20 05:02:20;;;;;;;41.92;30.35;;;;;;;19.48;100.00;100277.34;4984195;28;20044;-74
2022/08/20 05:04:46;;;;;;;39.50;28.10;;;;;;;19.46;100.00;100282.75;4980147;28;20031;-75
2022/08/20 05:07:13;;;;;;;45.95;29.98;;;;;;;19.41;100.00;100281.25;4985162;28;20030;-75
2022/08/20 05:09:40;;;;;;;45.53;30.92;;;;;;;19.44;100.00;100281.09;4984487;28;20478;-75
2022/08/20 05:12:05;;;;;;;53.78;35.42;;;;;;;19.46;100.00;100281.91;4982923;28;20035;-75
2022/08/20 05:14:30;;;;;;;41.35;30.48;;;;;;;19.44;100.00;100289.13;4980705;28;20038;-75
2022/08/20 05:16:59;;;;;;;46.17;32.10;;;;;;;19.48;100.00;100291.59;4986114;28;20034;-74
2022/08/20 05:19:25;;;;;;;44.45;30.23;;;;;;;19.46;100.00;100287.25;4979928;28;20255;-75
2022/08/20 05:21:52;;;;;;;44.00;32.58;;;;;;;19.46;100.00;100295.28;4984858;28;20038;-75
2022/08/20 05:24:18;;;;;;;47.70;32.45;;;;;;;19.49;100.00;100292.47;4984748;28;20527;-75
2022/08/20 05:26:44;;;;;;;53.00;34.33;;;;;;;19.52;100.00;100294.13;4983627;28;20039;-75
2022/08/20 05:29:09;;;;;;;45.13;32.55;;;;;;;19.52;100.00;100287.00;4984797;28;20049;-75
2022/08/20 05:31:35;;;;;;;51.97;36.10;;;;;;;19.54;100.00;100293.13;4982619;28;20396;-74
2022/08/20 05:34:08;;;;;;;53.65;35.05;;;;;;;19.61;100.00;100297.25;4985550;28;20045;-74
2022/08/20 05:36:33;;;;;;;53.35;36.72;;;;;;;19.58;100.00;100292.03;4985029;28;20445;-74
2022/08/20 05:38:59;;;;;;;45.97;33.13;;;;;;;19.62;100.00;100285.63;4983204;28;20042;-74
2022/08/20 05:41:25;;;;;;;44.72;32.17;;;;;;;19.67;100.00;100288.94;4980907;28;20192;-74
2022/08/20 05:43:50;;;;;;;50.05;33.97;;;;;;;19.67;100.00;100291.63;4981930;28;20036;-74
2022/08/20 05:46:16;;;;;;;57.20;36.45;;;;;;;19.64;100.00;100285.53;4983178;28;20043;-74
2022/08/20 05:48:41;;;;;;;51.42;34.63;;;;;;;19.65;100.00;100288.13;4984271;28;20485;-75
2022/08/20 05:51:07;;;;;;;52.05;36.17;;;;;;;19.61;100.00;100281.19;4984293;28;20079;-74
2022/08/20 05:53:33;;;;;;;44.58;33.05;;;;;;;19.74;100.00;100286.84;4983130;28;20031;-75
2022/08/20 05:55:59;;;;;;;55.10;37.40;;;;;;;19.74;100.00;100291.34;4985423;28;20100;-74
2022/08/20 05:58:27;;;;;;;59.08;38.05;;;;;;;19.76;100.00;100284.13;4978660;28;20046;-74
2022/08/20 06:00:54;;;;;;;54.30;35.90;;;;;;;19.77;100.00;100283.16;4984758;28;20474;-75
2022/08/20 06:06:04;;;;;;;54.80;36.88;;;;;;;19.85;100.00;100297.03;4980000;28;20038;-74
2022/08/20 06:08:29;;;;;;;50.10;34.55;;;;;;;19.91;100.00;100300.31;4984476;28;20039;-75
2022/08/20 06:10:55;;;;;;;57.63;36.05;;;;;;;19.92;100.00;100296.69;4985285;28;20049;-74
2022/08/20 06:13:20;;;;;;;49.35;35.95;;;;;;;19.86;100.00;100306.84;4980776;28;20041;-74
2022/08/20 06:15:46;;;;;;;63.38;37.53;;;;;;;19.83;100.00;100312.31;4981695;28;20053;-74
2022/08/20 06:18:11;;;;;;;49.58;35.08;;;;;;;19.89;100.00;100320.94;4982138;28;20043;-74
2022/08/20 06:20:37;;;;;;;51.78;37.40;;;;;;;19.91;100.00;100320.84;4983443;28;20042;-74
2022/08/20 06:23:03;;;;;;;53.47;34.90;;;;;;;19.86;100.00;100323.78;4980790;28;20026;-74
2022/08/20 06:25:29;;;;;;;48.38;35.90;;;;;;;19.89;100.00;100325.44;4984031;28;20145;-74
2022/08/20 06:27:54;;;;;;;54.45;37.95;;;;;;;19.89;100.00;100322.75;4985685;28;20122;-74
2022/08/20 06:30:19;;;;;;;49.80;35.75;;;;;;;19.92;100.00;100331.50;4982948;28;20113;-74
2022/08/20 06:32:45;;;;;;;48.97;35.72;;;;;;;19.92;100.00;100325.28;4978727;28;20046;-75
2022/08/20 06:35:11;;;;;;;57.58;38.47;;;;;;;19.85;100.00;100331.84;4974998;28;20038;-74
2022/08/20 06:37:38;;;;;;;54.80;36.60;;;;;;;19.89;100.00;100334.31;4980808;28;20038;-75
2022/08/20 06:40:08;;;;;;;55.28;38.13;;;;;;;19.89;100.00;100330.78;4978816;28;20049;-74
2022/08/20 06:42:33;;;;;;;56.67;37.70;;;;;;;19.90;100.00;100335.19;4972490;28;20130;-74
2022/08/20 06:44:59;;;;;;;54.90;37.70;;;;;;;19.90;100.00;100335.19;4979678;28;20129;-75
2022/08/20 06:47:24;;;;;;;55.50;36.75;;;;;;;19.96;100.00;100337.56;4983844;28;20832;-74
2022/08/20 06:49:50;;;;;;;47.30;33.97;;;;;;;19.98;100.00;100342.84;4982532;28;20031;-74
2022/08/20 06:52:16;;;;;;;50.67;35.88;;;;;;;20.00;100.00;100346.34;4981115;28;20049;-74
2022/08/20 06:54:43;;;;;;;53.47;36.58;;;;;;;19.97;100.00;100347.34;4982774;28;20035;-73
2022/08/20 06:57:09;;;;;;;48.10;35.42;;;;;;;20.01;100.00;100350.75;4981026;28;20402;-74
2022/08/20 06:59:35;;;;;;;57.03;37.45;;;;;;;20.06;100.00;100352.25;4980709;28;20045;-75
2022/08/20 07:02:00;;;;;;;50.15;34.90;;;;;;;19.98;100.00;100349.06;4975702;28;20070;-74
2022/08/20 07:04:26;;;;;;;65.43;39.10;;;;;;;20.01;100.00;100356.97;4977274;28;20517;-75
2022/08/20 07:06:52;;;;;;;53.83;35.13;;;;;;;20.04;100.00;100354.16;4982179;28;20134;-75
2022/08/20 07:09:19;;;;;;;59.03;36.13;;;;;;;20.01;100.00;100356.09;4960994;28;20043;-75
2022/08/20 07:11:44;;;;;;;63.25;38.75;;;;;;;20.01;100.00;100353.41;4980024;28;20050;-75
2022/08/20 07:14:10;;;;;;;66.63;39.70;;;;;;;19.93;100.00;100351.09;4981473;28;20050;-75
2022/08/20 07:16:36;;;;;;;54.55;37.38;;;;;;;19.93;100.00;100361.81;4980107;28;20074;-75
2022/08/20 07:19:01;;;;;;;61.50;40.10;;;;;;;19.90;100.00;100361.97;4995823;28;20067;-76
2022/08/20 07:21:26;;;;;;;52.60;37.75;;;;;;;19.95;100.00;100359.09;4981827;28;20112;-76
2022/08/20 07:23:52;;;;;;;56.60;38.38;;;;;;;19.83;100.00;100363.19;4967071;28;20132;-75
2022/08/20 07:26:18;;;;;;;61.05;39.90;;;;;;;19.82;100.00;100362.34;4980843;28;20062;-76
2022/08/20 07:28:44;;;;;;;56.75;39.58;;;;;;;19.78;100.00;100373.25;4977239;28;20438;-76
2022/08/20 07:33:53;;;;;;;60.95;40.08;;;;;;;19.73;100.00;100372.59;4974650;28;20125;-77
2022/08/20 07:36:19;;;;;;;62.50;41.10;;;;;;;19.70;100.00;100379.84;4982179;28;20082;-78
2022/08/20 07:38:51;;;;;;;56.80;38.45;;;;;;;19.69;100.00;100370.06;4988560;28;20050;-78
2022/08/20 07:41:17;;;;;;;70.68;41.17;;;;;;;19.74;100.00;100371.69;4985870;28;20113;-79
2022/08/20 07:43:46;;;;;;;65.85;40.50;;;;;;;19.83;100.00;100373.91;4983108;28;20034;-78
2022/08/20 07:46:13;;;;;;;61.75;41.72;;;;;;;19.81;100.00;100374.00;4987437;28;20421;-78
2022/08/20 07:48:44;;;;;;;55.88;38.78;;;;;;;19.87;100.00;100384.41;4984896;28;20409;-78
2022/08/20 07:51:10;;;;;;;50.70;38.23;;;;;;;19.95;100.00;100381.38;4982023;28;20509;-78
2022/08/20 07:53:37;;;;;;;69.63;42.67;;;;;;;19.92;100.00;100382.38;4983773;28;20038;-78
2022/08/20 07:56:05;;;;;;;60.10;40.95;;;;;;;19.90;100.00;100388.75;4981907;28;20034;-78
2022/08/20 07:58:31;;;;;;;56.20;38.78;;;;;;;19.93;100.00;100385.94;4985456;28;20030;-78
2022/08/20 08:00:57;;;;;;;50.35;36.25;;;;;;;19.89;100.00;100387.03;4985300;28;20142;-78
2022/08/20 08:03:22;;;;;;;54.00;38.33;;;;;;;19.87;100.00;100394.25;4981727;28;20047;-78
2022/08/20 08:05:50;;;;;;;55.40;38.58;;;;;;;19.81;100.00;100387.38;4985647;28;20056;-78
2022/08/20 08:08:21;;;;;;;52.35;37.45;;;;;;;19.79;100.00;100389.25;4979480;28;20504;-78
2022/08/20 08:10:49;;;;;;;60.33;39.83;;;;;;;19.72;100.00;100390.47;4983415;28;20069;-78
2022/08/20 08:13:28;;;;;;;55.22;37.03;;;;;;;19.72;100.00;100390.47;4977280;28;20041;-78
2022/08/20 08:15:57;;;;;;;55.05;39.40;;;;;;;19.65;100.00;100397.03;4983011;28;20038;-77
2022/08/20 08:18:27;;;;;;;51.25;37.80;;;;;;;19.77;100.00;100395.63;4982600;28;20149;-78
2022/08/20 08:20:53;;;;;;;51.55;38.63;;;;;;;19.74;100.00;100399.31;4981265;28;20035;-78
2022/08/20 08:23:21;;;;;;;55.10;37.45;;;;;;;19.74;100.00;100406.47;4982287;28;20026;-78
2022/08/20 08:25:46;;;;;;;59.22;39.42;;;;;;;19.78;100.00;100400.03;4981553;28;20420;-78
2022/08/20 08:28:13;;;;;;;64.22;41.72;;;;;;;19.82;100.00;100401.63;4980125;28;20049;-78
2022/08/20 08:30:40;;;;;;;52.90;38.22;;;;;;;19.93;100.00;100404.69;4966714;28;20042;-78
2022/08/20 08:35:50;;;;;;;51.45;36.15;;;;;;;20.03;100.00;100399.75;4980790;28;20117;-78
2022/08/20 08:38:15;;;;;;;50.60;37.65;;;;;;;20.06;100.00;100405.84;4978796;28;20122;-78
2022/08/20 08:40:41;;;;;;;48.47;37.60;;;;;;;19.99;100.00;100412.44;4976963;28;20046;-78
2022/08/20 08:43:06;;;;;;;51.05;38.30;;;;;;;19.99;100.00;100412.44;4982360;28;20397;-78
2022/08/20 08:45:44;;;;;;;52.92;39.38;;;;;;;19.93;100.00;100404.69;4986597;28;20042;-78
2022/08/20 08:48:12;;;;;;;46.53;34.15;;;;;;;20.01;100.00;100402.50;4982549;28;20054;-78
2022/08/20 08:50:41;;;;;;;64.22;40.58;;;;;;;19.96;100.00;100407.19;4989619;28;20528;-78
2022/08/20 08:53:14;;;;;;;55.42;38.97;;;;;;;20.08;100.00;100409.31;4988187;28;20524;-78
2022/08/20 08:55:40;;;;;;;59.97;39.92;;;;;;;20.21;100.00;100409.59;4986779;28;20057;-78
2022/08/20 08:58:05;;;;;;;52.35;37.85;;;;;;;20.31;100.00;100410.91;4966545;28;20043;-78
2022/08/20 09:00:30;;;;;;;50.67;39.55;;;;;;;20.26;100.00;100412.06;4987928;28;20046;-79
2022/08/20 09:03:10;;;;;;;45.88;35.45;;;;;;;20.31;100.00;100415.41;4986915;28;20035;-78
2022/08/20 09:05:42;;;;;;;52.80;37.72;;;;;;;20.27;100.00;100411.13;4985869;28;20050;-78
2022/08/20 09:08:11;;;;;;;53.95;37.88;;;;;;;20.37;100.00;100420.44;4989832;28;20457;-79
2022/08/20 09:10:37;;;;;;;57.35;40.05;;;;;;;20.28;100.00;100420.91;4989264;28;20042;-78
2022/08/20 09:13:07;;;;;;;54.30;37.55;;;;;;;20.36;100.00;100424.09;4987576;28;20058;-78
2022/08/20 09:15:33;;;;;;;49.38;37.58;;;;;;;20.44;100.00;100432.63;4985505;28;20034;-78
2022/08/20 09:17:59;;;;;;;57.25;38.15;;;;;;;20.45;100.00;100430.78;4988824;28;20436;-78
2022/08/20 09:20:24;;;;;;;50.22;38.25;;;;;;;20.47;100.00;100429.78;4989037;28;20053;-78
2022/08/20 09:22:50;;;;;;;46.45;36.80;;;;;;;20.60;100.00;100426.53;4987665;28;20030;-78
2022/08/20 09:25:16;;;;;;;49.28;37.97;;;;;;;20.58;100.00;100424.78;4987903;28;20038;-78
2022/08/20 09:27:41;;;;;;;49.88;37.30;;;;;;;20.63;100.00;100421.88;4983829;28;20039;-79
2022/08/20 09:30:08;;;;;;;51.97;38.28;;;;;;;20.81;100.00;100420.09;4987114;28;20525;-78
2022/08/20 09:32:33;;;;;;;43.05;35.75;;;;;;;20.84;100.00;100425.31;4986758;28;20035;-78
2022/08/20 09:34:58;;;;;;;44.45;34.92;;;;;;;20.89;100.00;100430.44;4983868;28;20065;-80
2022/08/20 09:37:27;;;;;;;41.88;35.03;;;;;;;21.09;100.00;100424.03;4980619;28;20080;-81
2022/08/20 09:39:53;;;;;;;44.92;36.47;;;;;;;21.30;100.00;100414.91;4992886;28;20088;-81
2022/08/20 09:42:22;;;;;;;43.80;39.10;;;;;;;21.32;100.00;100423.72;4988193;28;20036;-81
2022/08/20 09:44:48;;;;;;;45.03;36.53;;;;;;;21.34;99.94;100424.50;4976908;28;20094;-81
2022/08/20 09:47:14;;;;;;;40.70;34.42;;;;;;;21.59;98.60;100423.25;4995790;28;20034;-81
2022/08/20 09:49:39;;;;;;;39.72;34.42;;;;;;;21.76;97.62;100425.03;4980654;28;20062;-81
2022/08/20 09:52:08;;;;;;;44.47;39.85;;;;;;;21.92;94.86;100422.38;4992772;28;20047;-80
2022/08/20 09:54:34;;;;;;;38.17;33.10;;;;;;;21.86;93.41;100427.13;4991323;28;20114;-81
2022/08/20 09:57:03;;;;;;;39.85;31.35;;;;;;;21.90;95.72;100425.13;4990256;28;20035;-81
2022/08/20 09:59:30;;;;;;;39.58;33.45;;;;;;;21.75;91.74;100424.16;4983186;28;20042;-81
2022/08/20 10:01:55;;;;;;;37.08;32.60;;;;;;;21.73;93.43;100425.19;4989921;28;20081;-81
2022/08/20 10:04:21;;;;;;;34.92;30.17;;;;;;;21.64;91.14;100427.44;4996062;28;20039;-81
2022/08/20 10:06:46;;;;;;;33.95;29.77;;;;;;;21.57;94.37;100431.38;4994381;28;20077;-80
2022/08/20 10:09:12;;;;;;;35.40;31.35;;;;;;;21.58;95.07;100432.25;4980052;28;20069;-81
2022/08/20 10:11:37;;;;;;;38.20;30.60;;;;;;;21.74;94.98;100430.47;4996499;28;20034;-80
2022/08/20 10:14:03;;;;;;;31.00;27.73;;;;;;;21.82;93.18;100430.94;4993674;28;20034;-80
2022/08/20 10:16:29;;;;;;;33.67;28.90;;;;;;;21.87;91.95;100422.59;4997372;28;20482;-80
2022/08/20 10:18:55;;;;;;;34.90;30.27;;;;;;;21.73;92.94;100428.75;4992992;28;20042;-80
2022/08/20 10:21:20;;;;;;;37.92;30.27;;;;;;;21.73;95.05;100428.75;4978225;28;20039;-80
2022/08/20 10:23:46;;;;;;;35.90;31.52;;;;;;;21.83;92.53;100427.28;4997003;28;20039;-80
2022/08/20 10:26:12;;;;;;;35.75;31.63;;;;;;;21.75;90.46;100434.91;4978346;28;20062;-79
2022/08/20 10:28:38;;;;;;;33.42;29.75;;;;;;;21.74;91.43;100438.53;4994692;28;20187;-79
2022/08/20 10:31:08;;;;;;;37.15;33.40;;;;;;;21.64;89.98;100440.84;4992716;28;20042;-79
2022/08/20 10:33:34;;;;;;;31.95;28.10;;;;;;;21.55;92.29;100435.09;4995659;28;20049;-79
2022/08/20 10:36:14;;;;;;;32.70;29.20;;;;;;;21.59;90.57;100434.00;4992974;28;20086;-79
2022/08/20 10:38:40;;;;;;;35.05;31.27;;;;;;;21.64;92.09;100451.59;4990334;28;20041;-78
2022/08/20 10:41:05;;;;;;;30.90;27.63;;;;;;;21.77;91.77;100442.84;4991659;28;20521;-78
2022/08/20 10:43:30;;;;;;;35.35;30.05;;;;;;;21.83;90.29;100445.22;4986906;28;20047;-78
2022/08/20 10:45:56;;;;;;;32.78;29.35;;;;;;;21.91;91.25;100444.81;4987863;28;20038;-78
2022/08/20 10:48:22;;;;;;;33.90;30.55;;;;;;;22.02;87.49;100445.94;4988611;28;20035;-78
2022/08/20 10:50:48;;;;;;;37.88;31.45;;;;;;;21.79;89.53;100444.50;4987122;28;20045;-78
2022/08/20 10:53:13;;;;;;;33.38;29.23;;;;;;;21.76;91.43;100450.06;4988061;28;20040;-78
2022/08/20 10:55:39;;;;;;;32.47;28.88;;;;;;;21.88;89.73;100452.09;4984913;28;20066;-78
2022/08/20 10:58:07;;;;;;;38.10;29.08;;;;;;;21.73;89.28;100447.53;4987218;28;20065;-78
2022/08/20 11:00:34;;;;;;;33.72;29.08;;;;;;;21.84;91.85;100449.66;4985234;28;20070;-77
2022/08/20 11:02:59;;;;;;;33.92;29.60;;;;;;;21.85;89.52;100451.38;4983316;28;20099;-77
2022/08/20 11:05:25;;;;;;;32.03;28.83;;;;;;;21.86;89.27;100453.13;4952325;28;20081;-77
2022/08/20 11:07:50;;;;;;;34.17;30.65;;;;;;;21.72;89.53;100444.94;4981176;28;20038;-77
2022/08/20 11:10:16;;;;;;;32.10;28.15;;;;;;;21.62;92.05;100455.31;4978211;28;20043;-77
2022/08/20 11:12:42;;;;;;;32.25;26.42;;;;;;;21.57;90.56;100442.13;4984198;28;20034;-77
2022/08/20 11:15:09;;;;;;;28.88;25.60;;;;;;;21.43;92.83;100445.56;4981321;28;20041;-77